Time;durP1;ratioP1;P1;durP2;ratioP2;P2;SDS_P1;SDS_P2;PMS_P1;PMS_P2;Temp;Humidity;BMP_temperature;BMP_pressure;BME280_temperature;BME280_humidity;BME280_pressure;Samples;Min_cycle;Max_cycle;Signal;HPM_P1;HPM_P2
2021/01/24 00:00:31;;;;;;;0.70;0.60;;;;;;;-144.78;100.00;59851.00;5012951;28;20203;-73
2021/01/24 00:02:57;;;;;;;0.98;0.93;;;;;;;-144.78;100.00;59851.00;5012641;28;20213;-74
2021/01/24 00:05:24;;;;;;;1.60;0.82;;;;;;;-144.78;100.00;59851.00;5013072;28;20693;-72
2021/01/24 00:07:51;;;;;;;0.90;0.80;;;;;;;-144.78;100.00;59851.00;5013031;28;20202;-73
2021/01/24 00:10:18;;;;;;;1.33;1.00;;;;;;;-144.78;100.00;59851.00;5012874;28;20717;-73
2021/01/24 00:12:45;;;;;;;1.40;1.15;;;;;;;-144.78;100.00;59851.00;5012464;28;20253;-71
2021/01/24 00:15:11;;;;;;;1.42;0.90;;;;;;;-144.78;100.00;59851.00;5013131;28;20198;-72
2021/01/24 00:17:39;;;;;;;0.93;0.82;;;;;;;-144.78;100.00;59851.00;5012937;28;20617;-73
2021/01/24 00:20:21;;;;;;;0.73;0.70;;;;;;;-144.78;100.00;59851.00;5012930;28;20644;-73
2021/01/24 00:22:47;;;;;;;1.00;0.90;;;;;;;-144.78;100.00;59851.00;4971971;28;20208;-71
2021/01/24 00:25:15;;;;;;;0.95;0.95;;;;;;;-144.78;100.00;59851.00;4971529;28;20295;-72
2021/01/24 00:27:41;;;;;;;1.17;1.10;;;;;;;-144.78;100.00;59851.00;4971488;28;20662;-72
2021/01/24 00:30:09;;;;;;;1.38;0.90;;;;;;;-144.78;100.00;59851.00;4989624;28;20720;-72
2021/01/24 00:32:35;;;;;;;1.45;1.05;;;;;;;-144.78;100.00;59851.00;4990958;28;20301;-71
2021/01/24 00:35:03;;;;;;;1.20;1.10;;;;;;;-144.78;100.00;59851.00;4990745;28;20257;-70
2021/01/24 00:37:29;;;;;;;0.80;0.70;;;;;;;-144.78;100.00;59851.00;4990705;28;20207;-71
2021/01/24 00:39:57;;;;;;;0.75;0.75;;;;;;;-144.78;100.00;59851.00;4991261;28;20753;-71
2021/01/24 00:42:24;;;;;;;1.00;1.00;;;;;;;-144.78;100.00;59851.00;4990802;28;20238;-70
2021/01/24 00:44:50;;;;;;;0.70;0.65;;;;;;;-144.78;100.00;59851.00;4991010;28;20694;-70
2021/01/24 00:47:17;;;;;;;1.08;0.98;;;;;;;-144.78;100.00;59851.00;4990663;28;20209;-72
2021/01/24 00:49:43;;;;;;;0.90;0.80;;;;;;;-144.78;100.00;59851.00;4991230;28;20612;-72
2021/01/24 00:52:10;;;;;;;0.70;0.60;;;;;;;-144.78;100.00;59851.00;4990655;28;20214;-71
2021/01/24 00:54:36;;;;;;;2.22;1.00;;;;;;;-144.78;100.00;59851.00;4991155;28;20235;-71
2021/01/24 00:57:03;;;;;;;2.75;1.08;;;;;;;-144.78;100.00;59851.00;4989884;28;20686;-71
2021/01/24 00:59:31;;;;;;;1.48;1.33;;;;;;;-144.78;100.00;59851.00;4998116;28;20240;-71
2021/01/24 01:01:57;;;;;;;1.55;1.45;;;;;;;-144.78;100.00;59851.00;5012502;28;20264;-71
2021/01/24 01:04:24;;;;;;;0.80;0.70;;;;;;;-144.78;100.00;59851.00;5012773;28;20214;-71
2021/01/24 01:06:50;;;;;;;2.90;1.67;;;;;;;-144.78;100.00;59851.00;5012745;28;20218;-72
2021/01/24 01:09:17;;;;;;;3.22;1.77;;;;;;;-144.78;100.00;59851.00;5012207;28;20230;-72
2021/01/24 01:11:44;;;;;;;2.35;1.63;;;;;;;-144.78;100.00;59851.00;5012782;28;20218;-71
2021/01/24 01:14:10;;;;;;;3.95;1.95;;;;;;;-144.78;100.00;59851.00;5012714;28;20325;-71
2021/01/24 01:16:38;;;;;;;5.75;1.90;;;;;;;-144.78;100.00;59851.00;5012356;28;20210;-71
2021/01/24 01:19:04;;;;;;;3.28;2.47;;;;;;;-144.78;100.00;59851.00;5012015;28;20271;-71
2021/01/24 01:21:30;;;;;;;6.13;3.92;;;;;;;-144.78;100.00;59851.00;5012435;28;20563;-72
2021/01/24 01:23:57;;;;;;;1.77;1.60;;;;;;;-144.78;100.00;59851.00;5011945;28;20214;-71
2021/01/24 01:26:24;;;;;;;5.10;2.40;;;;;;;-144.78;100.00;59851.00;5011722;28;20234;-72
2021/01/24 01:28:50;;;;;;;2.92;2.72;;;;;;;-144.78;100.00;59851.00;5011844;28;20756;-73
2021/01/24 01:31:16;;;;;;;2.90;2.70;;;;;;;-144.78;100.00;59851.00;5012087;28;20207;-71
2021/01/24 01:33:44;;;;;;;1.10;1.00;;;;;;;-144.78;100.00;59851.00;5011667;28;20272;-71
2021/01/24 01:36:10;;;;;;;5.70;1.95;;;;;;;-144.78;100.00;59851.00;5012212;28;20234;-70
2021/01/24 01:38:36;;;;;;;2.80;2.33;;;;;;;-144.78;100.00;59851.00;5011655;28;20256;-70
2021/01/24 01:41:03;;;;;;;2.45;1.25;;;;;;;-144.78;100.00;59851.00;5011794;28;20191;-71
2021/01/24 01:43:30;;;;;;;1.60;1.45;;;;;;;-144.78;100.00;59851.00;5011448;28;20202;-70
2021/01/24 01:45:56;;;;;;;3.83;1.73;;;;;;;-144.78;100.00;59851.00;5012051;28;20685;-70
2021/01/24 01:48:23;;;;;;;3.95;2.10;;;;;;;-144.78;100.00;59851.00;5011458;28;20203;-72
2021/01/24 01:50:50;;;;;;;4.10;2.50;;;;;;;-144.78;100.00;59851.00;5011530;28;20206;-71
2021/01/24 01:53:16;;;;;;;2.63;1.73;;;;;;;-144.78;100.00;59851.00;5011478;28;20207;-72
2021/01/24 01:55:43;;;;;;;5.88;2.47;;;;;;;-144.78;100.00;59851.00;5011928;28;20215;-70
2021/01/24 01:58:09;;;;;;;2.30;1.73;;;;;;;-144.78;100.00;59851.00;5011391;28;20289;-72
2021/01/24 02:00:35;;;;;;;3.45;1.35;;;;;;;-144.78;100.00;59851.00;5011960;28;20649;-71
2021/01/24 02:03:21;;;;;;;3.08;2.47;;;;;;;-144.78;100.00;59851.00;5011912;28;20213;-71
2021/01/24 02:05:56;;;;;;;3.53;2.25;;;;;;;-144.78;100.00;59851.00;5010402;28;20269;-71
2021/01/24 02:08:28;;;;;;;3.40;1.92;;;;;;;-144.78;100.00;59851.00;5012576;28;20194;-71
2021/01/24 02:11:03;;;;;;;4.30;2.05;;;;;;;-144.78;100.00;59851.00;5014766;28;20289;-70
2021/01/24 02:13:40;;;;;;;3.90;2.20;;;;;;;-144.78;100.00;59851.00;5015218;28;20194;-70
2021/01/24 02:16:08;;;;;;;7.13;3.13;;;;;;;-144.78;100.00;59851.00;5014962;28;20194;-72
2021/01/24 02:18:36;;;;;;;2.88;2.00;;;;;;;-144.78;100.00;59851.00;5015282;28;20218;-71
2021/01/24 02:21:12;;;;;;;3.22;1.65;;;;;;;-144.78;100.00;59851.00;5015350;28;20317;-72
2021/01/24 02:23:42;;;;;;;5.38;2.22;;;;;;;-144.78;100.00;59851.00;5015254;28;20633;-71
2021/01/24 02:26:15;;;;;;;2.63;2.13;;;;;;;-144.78;100.00;59851.00;5015334;28;20207;-71
2021/01/24 02:28:56;;;;;;;3.35;2.58;;;;;;;-144.78;100.00;59851.00;5014874;28;20700;-71
2021/01/24 02:31:25;;;;;;;3.58;1.73;;;;;;;-144.78;100.00;59851.00;5015024;28;20550;-71
2021/01/24 02:33:53;;;;;;;1.35;1.13;;;;;;;-144.78;100.00;59851.00;5014659;28;20195;-72
2021/01/24 02:36:20;;;;;;;4.30;2.95;;;;;;;-144.78;100.00;59851.00;5014712;28;20249;-72
2021/01/24 02:38:47;;;;;;;2.17;1.88;;;;;;;-144.78;100.00;59851.00;5014668;28;20239;-72
2021/01/24 02:41:15;;;;;;;2.45;2.22;;;;;;;-144.78;100.00;59851.00;5014556;28;20273;-71
2021/01/24 02:43:44;;;;;;;1.88;1.77;;;;;;;-144.78;100.00;59851.00;5014217;28;20250;-71
2021/01/24 02:46:12;;;;;;;3.90;3.00;;;;;;;-144.78;100.00;59851.00;5014420;28;20229;-71
2021/01/24 02:48:40;;;;;;;5.65;3.00;;;;;;;-144.78;100.00;59851.00;5014706;28;20210;-71
2021/01/24 02:51:07;;;;;;;2.92;2.15;;;;;;;-144.78;100.00;59851.00;5014124;28;20218;-72
2021/01/24 02:53:35;;;;;;;5.28;1.90;;;;;;;-144.78;100.00;59851.00;5014781;28;20641;-71
2021/01/24 02:56:02;;;;;;;1.75;1.45;;;;;;;-144.78;100.00;59851.00;5014646;28;20877;-70
2021/01/24 02:58:30;;;;;;;1.42;1.33;;;;;;;-144.78;100.00;59851.00;5014699;28;20943;-72
2021/01/24 03:00:56;;;;;;;3.30;1.75;;;;;;;-144.78;100.00;59851.00;5014162;28;20210;-71
2021/01/24 03:03:23;;;;;;;5.50;2.72;;;;;;;-144.78;100.00;59851.00;5014718;28;20213;-72
2021/01/24 03:05:51;;;;;;;2.33;1.25;;;;;;;-144.78;100.00;59851.00;5014991;28;20237;-72
2021/01/24 03:08:19;;;;;;;2.63;1.77;;;;;;;-144.78;100.00;59851.00;5014126;28;20218;-70
2021/01/24 03:10:45;;;;;;;1.75;1.65;;;;;;;-144.78;100.00;59851.00;5013792;28;20231;-73
2021/01/24 03:13:19;;;;;;;2.45;2.00;;;;;;;-144.78;100.00;59851.00;5014455;28;20297;-72
2021/01/24 03:15:48;;;;;;;5.72;3.55;;;;;;;-144.78;100.00;59851.00;5014627;28;20282;-71
2021/01/24 03:18:21;;;;;;;2.20;1.40;;;;;;;-144.78;100.00;59851.00;5014229;28;20581;-71
2021/01/24 03:20:51;;;;;;;4.72;2.75;;;;;;;-144.78;100.00;59851.00;5012976;28;20656;-72
2021/01/24 03:23:18;;;;;;;2.08;1.90;;;;;;;-144.78;100.00;59851.00;5014478;28;20260;-72
2021/01/24 03:25:45;;;;;;;2.00;1.33;;;;;;;-144.78;100.00;59851.00;5013669;28;20253;-72
2021/01/24 03:28:13;;;;;;;2.67;1.90;;;;;;;-144.78;100.00;59851.00;5013338;28;20284;-71
2021/01/24 03:30:39;;;;;;;2.10;1.90;;;;;;;-144.78;100.00;59851.00;5013992;28;20265;-72
2021/01/24 03:33:07;;;;;;;3.83;1.92;;;;;;;-144.78;100.00;59851.00;5014256;28;20202;-72
2021/01/24 03:35:34;;;;;;;2.88;1.80;;;;;;;-144.78;100.00;59851.00;5013930;28;20642;-72
2021/01/24 03:38:01;;;;;;;4.53;2.03;;;;;;;-144.78;100.00;59851.00;5013955;28;20206;-71
2021/01/24 03:40:28;;;;;;;1.70;1.48;;;;;;;-144.78;100.00;59851.00;5014013;28;20198;-72
2021/01/24 03:42:54;;;;;;;2.65;1.88;;;;;;;-144.78;100.00;59851.00;5013891;28;20285;-72
2021/01/24 03:45:20;;;;;;;3.28;2.22;;;;;;;-144.78;100.00;59851.00;5013734;28;20269;-72
2021/01/24 03:47:46;;;;;;;2.85;2.50;;;;;;;-144.78;100.00;59851.00;5013323;28;20260;-72
2021/01/24 03:50:13;;;;;;;1.95;1.85;;;;;;;-144.78;100.00;59851.00;5013421;28;20684;-71
2021/01/24 03:52:39;;;;;;;3.45;1.30;;;;;;;-144.78;100.00;59851.00;5013564;28;20579;-72
2021/01/24 03:55:07;;;;;;;4.90;1.88;;;;;;;-144.78;100.00;59851.00;5013476;28;20195;-73
2021/01/24 03:57:34;;;;;;;1.00;0.90;;;;;;;-144.78;100.00;59851.00;5013948;28;20652;-72
2021/01/24 04:00:00;;;;;;;3.85;2.20;;;;;;;-144.78;100.00;59851.00;5013217;28;20523;-73
2021/01/24 04:02:26;;;;;;;2.72;2.53;;;;;;;-144.78;100.00;59851.00;5013645;28;20785;-73
2021/01/24 04:04:52;;;;;;;4.55;1.85;;;;;;;-144.78;100.00;59851.00;5013166;28;20211;-72
2021/01/24 04:07:19;;;;;;;1.58;1.35;;;;;;;-144.78;100.00;59851.00;5013134;28;20217;-71
2021/01/24 04:09:45;;;;;;;1.65;1.55;;;;;;;-144.78;100.00;59851.00;5013163;28;20754;-72
2021/01/24 04:12:12;;;;;;;2.75;2.05;;;;;;;-144.78;100.00;59851.00;5013018;28;20712;-71
2021/01/24 04:14:38;;;;;;;2.40;2.20;;;;;;;-144.78;100.00;59851.00;5013063;28;20664;-72
2021/01/24 04:17:05;;;;;;;2.85;2.33;;;;;;;-144.78;100.00;59851.00;5012870;28;20316;-70
2021/01/24 04:19:32;;;;;;;2.78;2.03;;;;;;;-144.78;100.00;59851.00;5012617;28;20193;-72
2021/01/24 04:21:58;;;;;;;0.95;0.70;;;;;;;-144.78;100.00;59851.00;5012788;28;20658;-72
2021/01/24 04:24:25;;;;;;;1.42;1.33;;;;;;;-144.78;100.00;59851.00;5012617;28;20198;-72
2021/01/24 04:26:52;;;;;;;2.88;1.95;;;;;;;-144.78;100.00;59851.00;5012377;28;20257;-71
2021/01/24 04:29:19;;;;;;;1.92;1.63;;;;;;;-144.78;100.00;59851.00;5012665;28;20273;-71
2021/01/24 04:31:46;;;;;;;6.45;1.98;;;;;;;-144.78;100.00;59851.00;5012522;28;20270;-72
2021/01/24 04:34:12;;;;;;;4.88;2.08;;;;;;;-144.78;100.00;59851.00;5012716;28;20720;-72
2021/01/24 04:36:39;;;;;;;1.60;1.50;;;;;;;-144.78;100.00;59851.00;5012239;28;20207;-72
2021/01/24 04:39:06;;;;;;;1.98;1.10;;;;;;;-144.78;100.00;59851.00;5012627;28;20210;-72
2021/01/24 04:41:36;;;;;;;1.38;1.15;;;;;;;-144.78;100.00;59851.00;5012562;28;20700;-71
2021/01/24 04:44:07;;;;;;;1.77;1.27;;;;;;;-144.78;100.00;59851.00;5012695;28;20190;-73
2021/01/24 04:46:34;;;;;;;2.15;1.95;;;;;;;-144.78;100.00;59851.00;5012445;28;20194;-72
2021/01/24 04:49:02;;;;;;;2.58;2.00;;;;;;;-144.78;100.00;59851.00;5011886;28;20261;-72
2021/01/24 04:51:28;;;;;;;1.65;1.55;;;;;;;-144.78;100.00;59851.00;5012430;28;20195;-72
2021/01/24 04:53:55;;;;;;;2.25;1.83;;;;;;;-144.78;100.00;59851.00;5012041;28;20248;-73
2021/01/24 04:56:21;;;;;;;2.22;2.03;;;;;;;-144.78;100.00;59851.00;5012452;28;20658;-72
2021/01/24 04:58:48;;;;;;;3.00;2.55;;;;;;;-144.78;100.00;59851.00;5011955;28;20294;-72
2021/01/24 05:01:17;;;;;;;1.85;1.33;;;;;;;-144.78;100.00;59851.00;5012363;28;20205;-72
2021/01/24 05:03:44;;;;;;;3.10;1.85;;;;;;;-144.78;100.00;59851.00;5012321;28;20538;-72
2021/01/24 05:06:10;;;;;;;3.08;1.90;;;;;;;-144.78;100.00;59851.00;5012462;28;20610;-73
2021/01/24 05:08:36;;;;;;;1.98;1.77;;;;;;;-144.78;100.00;59851.00;5012027;28;20197;-72
2021/01/24 05:11:05;;;;;;;2.20;1.52;;;;;;;-144.78;100.00;59851.00;5012033;28;20222;-72
2021/01/24 05:13:31;;;;;;;1.85;1.73;;;;;;;-144.78;100.00;59851.00;5012268;28;20545;-72
2021/01/24 05:15:58;;;;;;;1.65;1.55;;;;;;;-144.78;100.00;59851.00;5012158;28;20636;-71
2021/01/24 05:18:24;;;;;;;2.78;1.55;;;;;;;-144.78;100.00;59851.00;5012246;28;20187;-72
2021/01/24 05:20:52;;;;;;;2.45;1.67;;;;;;;-144.78;100.00;59851.00;5011730;28;20278;-73
2021/01/24 05:23:20;;;;;;;2.92;2.60;;;;;;;-144.78;100.00;59851.00;5011784;28;20241;-71
2021/01/24 05:25:47;;;;;;;3.70;2.33;;;;;;;-144.78;100.00;59851.00;5011988;28;20203;-73
2021/01/24 05:28:18;;;;;;;2.90;2.03;;;;;;;-144.78;100.00;59851.00;5011630;28;20317;-72
2021/01/24 05:30:45;;;;;;;4.28;1.80;;;;;;;-144.78;100.00;59851.00;5011991;28;20225;-72
2021/01/24 05:33:11;;;;;;;2.38;2.17;;;;;;;-144.78;100.00;59851.00;5012306;28;20318;-72
2021/01/24 05:35:47;;;;;;;2.05;1.80;;;;;;;-144.78;100.00;59851.00;5012173;28;20210;-71
2021/01/24 05:38:22;;;;;;;2.00;1.10;;;;;;;-144.78;100.00;59851.00;5011622;28;20197;-71
2021/01/24 05:40:49;;;;;;;3.50;2.08;;;;;;;-144.78;100.00;59851.00;5011561;28;20190;-72
2021/01/24 05:43:16;;;;;;;1.60;1.50;;;;;;;-144.78;100.00;59851.00;5012650;28;20278;-73
2021/01/24 05:45:43;;;;;;;1.80;1.63;;;;;;;-144.78;100.00;59851.00;5015854;28;20541;-73
2021/01/24 05:48:09;;;;;;;4.72;2.63;;;;;;;-144.78;100.00;59851.00;5015793;28;20295;-73
2021/01/24 05:50:36;;;;;;;2.67;2.28;;;;;;;-144.78;100.00;59851.00;5015463;28;20207;-73
2021/01/24 05:53:04;;;;;;;2.95;1.30;;;;;;;-144.78;100.00;59851.00;5015608;28;20195;-72
2021/01/24 05:55:32;;;;;;;3.60;1.90;;;;;;;-144.78;100.00;59851.00;5015656;28;20209;-73
2021/01/24 05:57:59;;;;;;;2.22;1.48;;;;;;;-144.78;100.00;59851.00;5015677;28;20297;-72
2021/01/24 06:00:26;;;;;;;1.55;1.45;;;;;;;-144.78;100.00;59851.00;5015479;28;20206;-71
2021/01/24 06:02:52;;;;;;;1.90;1.80;;;;;;;-144.78;100.00;59851.00;5015060;28;20294;-73
2021/01/24 06:05:19;;;;;;;2.00;1.27;;;;;;;-144.78;100.00;59851.00;5015199;28;20270;-73
2021/01/24 06:07:45;;;;;;;6.00;2.80;;;;;;;-144.78;100.00;59851.00;5015010;28;20726;-71
2021/01/24 06:10:12;;;;;;;1.77;1.55;;;;;;;-144.78;100.00;59851.00;5015246;28;20210;-71
2021/01/24 06:12:43;;;;;;;3.10;2.42;;;;;;;-144.78;100.00;59851.00;5015215;28;20207;-72
2021/01/24 06:15:14;;;;;;;1.83;1.67;;;;;;;-144.78;100.00;59851.00;5015023;28;20195;-72
2021/01/24 06:17:42;;;;;;;1.60;1.45;;;;;;;-144.78;100.00;59851.00;5014834;28;20318;-72
2021/01/24 06:20:12;;;;;;;4.80;2.05;;;;;;;-144.78;100.00;59851.00;5015221;28;20214;-72
2021/01/24 06:22:45;;;;;;;1.40;1.30;;;;;;;-144.78;100.00;59851.00;5015218;28;20254;-72
2021/01/24 06:25:16;;;;;;;3.67;1.90;;;;;;;-144.78;100.00;59851.00;5015074;28;20218;-72
2021/01/24 06:27:50;;;;;;;3.72;2.25;;;;;;;-144.78;100.00;59851.00;5014801;28;20194;-72
2021/01/24 06:30:19;;;;;;;3.47;2.13;;;;;;;-144.78;100.00;59851.00;5014919;28;20215;-72
2021/01/24 06:32:45;;;;;;;3.15;2.85;;;;;;;-144.78;100.00;59851.00;5014957;28;20229;-71
2021/01/24 06:35:20;;;;;;;2.10;2.00;;;;;;;-144.78;100.00;59851.00;5014549;28;20226;-72
2021/01/24 06:37:51;;;;;;;2.53;1.85;;;;;;;-144.78;100.00;59851.00;5014978;28;20304;-72
2021/01/24 06:40:26;;;;;;;2.47;2.28;;;;;;;-144.78;100.00;59851.00;5014700;28;20209;-71
2021/01/24 06:42:58;;;;;;;4.50;1.63;;;;;;;-144.78;100.00;59851.00;5014499;28;20202;-72
2021/01/24 06:45:40;;;;;;;3.92;3.55;;;;;;;-144.78;100.00;59851.00;5014222;28;20207;-72
2021/01/24 06:48:08;;;;;;;5.80;2.30;;;;;;;-144.78;100.00;59851.00;5014641;28;20527;-72
2021/01/24 06:50:42;;;;;;;6.15;2.47;;;;;;;-144.78;100.00;59851.00;5014582;28;20292;-72
2021/01/24 06:53:09;;;;;;;2.05;1.73;;;;;;;-144.78;100.00;59851.00;5014529;28;20701;-72
2021/01/24 06:55:37;;;;;;;2.83;2.53;;;;;;;-144.78;100.00;59851.00;5014340;28;20610;-72
2021/01/24 06:58:32;;;;;;;4.20;3.15;;;;;;;-144.78;100.00;59851.00;5014928;28;20268;-72
2021/01/24 07:01:21;;;;;;;1.50;1.40;;;;;;;-144.78;100.00;59851.00;5014375;28;20183;-72
2021/01/24 07:03:48;;;;;;;2.25;2.05;;;;;;;-144.78;100.00;59851.00;5014390;28;20207;-71
2021/01/24 07:06:33;;;;;;;2.42;2.15;;;;;;;-144.78;100.00;59851.00;5013756;28;20206;-72
2021/01/24 07:08:59;;;;;;;3.38;2.35;;;;;;;-144.78;100.00;59851.00;5013684;28;20297;-72
2021/01/24 07:11:51;;;;;;;5.38;2.72;;;;;;;-144.78;100.00;59851.00;5013869;28;20306;-72
2021/01/24 07:14:45;;;;;;;7.45;2.50;;;;;;;-144.78;100.00;59851.00;5014005;28;20218;-72
2021/01/24 07:17:13;;;;;;;2.17;2.03;;;;;;;-144.78;100.00;59851.00;5014005;28;20191;-72
2021/01/24 07:19:42;;;;;;;2.05;1.95;;;;;;;-144.78;100.00;59851.00;5013951;28;20245;-74
2021/01/24 07:22:11;;;;;;;4.03;2.08;;;;;;;-144.78;100.00;59851.00;5013620;28;20300;-73
2021/01/24 07:24:38;;;;;;;4.28;2.47;;;;;;;-144.78;100.00;59851.00;5013877;28;20553;-72
2021/01/24 07:27:07;;;;;;;7.03;2.60;;;;;;;-144.78;100.00;59851.00;5014037;28;20203;-71
2021/01/24 07:29:33;;;;;;;1.58;1.48;;;;;;;-144.78;100.00;59851.00;5014623;28;20250;-71
2021/01/24 07:32:08;;;;;;;1.45;1.10;;;;;;;-144.78;100.00;59851.00;5013616;28;20241;-72
2021/01/24 07:34:35;;;;;;;2.17;2.08;;;;;;;-144.78;100.00;59851.00;5013899;28;20245;-71
2021/01/24 07:37:02;;;;;;;2.72;1.45;;;;;;;-144.78;100.00;59851.00;5013472;28;20198;-72
2021/01/24 07:39:29;;;;;;;3.58;3.20;;;;;;;-144.78;100.00;59851.00;5013629;28;20288;-72
2021/01/24 07:42:00;;;;;;;2.22;2.00;;;;;;;-144.78;100.00;59851.00;5013200;28;20282;-72
2021/01/24 07:44:26;;;;;;;7.85;2.60;;;;;;;-144.78;100.00;59851.00;5013265;28;20210;-72
2021/01/24 07:46:52;;;;;;;3.65;2.55;;;;;;;-144.78;100.00;59851.00;5013696;28;20197;-71
2021/01/24 07:49:20;;;;;;;4.10;2.65;;;;;;;-144.78;100.00;59851.00;5013208;28;20330;-72
2021/01/24 07:51:50;;;;;;;2.42;1.90;;;;;;;-144.78;100.00;59851.00;5013707;28;20207;-72
2021/01/24 07:54:17;;;;;;;10.23;2.00;;;;;;;-144.78;100.00;59851.00;5013286;28;20206;-72
2021/01/24 07:56:44;;;;;;;3.50;3.20;;;;;;;-144.78;100.00;59851.00;5013369;28;20522;-70
2021/01/24 07:59:10;;;;;;;2.17;1.95;;;;;;;-144.78;100.00;59851.00;5013318;28;20700;-71
2021/01/24 08:01:37;;;;;;;3.28;2.10;;;;;;;-144.78;100.00;59851.00;5013521;28;20651;-73
2021/01/24 08:04:06;;;;;;;2.67;1.95;;;;;;;-144.78;100.00;59851.00;5013170;28;20300;-72
2021/01/24 08:06:34;;;;;;;4.80;3.10;;;;;;;-144.78;100.00;59851.00;5012552;28;20290;-73
2021/01/24 08:09:03;;;;;;;2.67;2.00;;;;;;;-144.78;100.00;59851.00;5012942;28;20205;-73
2021/01/24 08:11:29;;;;;;;1.75;1.65;;;;;;;-144.78;100.00;59851.00;5013027;28;20222;-72
2021/01/24 08:13:56;;;;;;;1.17;1.00;;;;;;;-144.78;100.00;59851.00;5012943;28;20293;-72
2021/01/24 08:16:30;;;;;;;3.15;2.35;;;;;;;-144.78;100.00;59851.00;5013165;28;20282;-72
2021/01/24 08:18:57;;;;;;;2.33;1.70;;;;;;;-144.78;100.00;59851.00;5013276;28;20186;-73
2021/01/24 08:21:25;;;;;;;1.92;1.67;;;;;;;-144.78;100.00;59851.00;5013189;28;20195;-72
2021/01/24 08:23:53;;;;;;;2.25;2.05;;;;;;;-144.78;100.00;59851.00;5013179;28;20191;-71
2021/01/24 08:26:19;;;;;;;5.38;2.08;;;;;;;-144.78;100.00;59851.00;5012613;28;20215;-71
2021/01/24 08:28:46;;;;;;;2.22;1.85;;;;;;;-144.78;100.00;59851.00;5012721;28;20312;-71
2021/01/24 08:31:17;;;;;;;1.88;1.50;;;;;;;-144.78;100.00;59851.00;5012715;28;20211;-71
2021/01/24 08:33:44;;;;;;;2.08;1.88;;;;;;;-144.78;100.00;59851.00;5012329;28;20306;-72
2021/01/24 08:36:12;;;;;;;3.70;2.65;;;;;;;-144.78;100.00;59851.00;5013126;28;20218;-71
2021/01/24 08:38:39;;;;;;;2.47;2.28;;;;;;;-144.78;100.00;59851.00;5012674;28;20214;-73
2021/01/24 08:41:06;;;;;;;1.23;1.13;;;;;;;-144.78;100.00;59851.00;5012506;28;20652;-72
2021/01/24 08:43:32;;;;;;;2.00;1.80;;;;;;;-144.78;100.00;59851.00;5012296;28;20209;-71
2021/01/24 08:46:17;;;;;;;2.35;1.85;;;;;;;-144.78;100.00;59851.00;5012516;28;20298;-72
2021/01/24 08:48:43;;;;;;;1.60;1.50;;;;;;;-144.78;100.00;59851.00;5012544;28;20233;-72
2021/01/24 08:51:09;;;;;;;2.30;1.80;;;;;;;-144.78;100.00;59851.00;5012660;28;20260;-71
2021/01/24 08:53:36;;;;;;;1.98;1.73;;;;;;;-144.78;100.00;59851.00;5012863;28;20692;-72
2021/01/24 08:56:02;;;;;;;2.55;1.70;;;;;;;-144.78;100.00;59851.00;5012659;28;20285;-72
2021/01/24 08:58:29;;;;;;;2.42;1.85;;;;;;;-144.78;100.00;59851.00;5012848;28;20222;-72
2021/01/24 09:01:03;;;;;;;3.17;1.30;;;;;;;-144.78;100.00;59851.00;5012605;28;20222;-72
2021/01/24 09:03:30;;;;;;;1.80;1.35;;;;;;;-144.78;100.00;59851.00;5012814;28;20211;-72
2021/01/24 09:06:14;;;;;;;3.67;2.55;;;;;;;-144.78;100.00;59851.00;5012262;28;20190;-72
2021/01/24 09:08:48;;;;;;;1.45;1.23;;;;;;;-144.78;100.00;59851.00;5012295;28;20260;-70
2021/01/24 09:11:15;;;;;;;3.10;1.77;;;;;;;-144.78;100.00;59851.00;5012610;28;20237;-70
2021/01/24 09:13:43;;;;;;;41.92;1.95;;;;;;;-144.78;100.00;59851.00;5012240;28;20290;-72
2021/01/24 09:16:09;;;;;;;8.20;1.60;;;;;;;-144.78;100.00;59851.00;5012589;28;20312;-70
2021/01/24 09:18:36;;;;;;;1.70;1.10;;;;;;;-144.78;100.00;59851.00;5013748;28;20257;-72
2021/01/24 09:21:04;;;;;;;3.55;2.30;;;;;;;-144.78;100.00;59851.00;5016521;28;21069;-72
2021/01/24 09:23:30;;;;;;;1.60;1.15;;;;;;;-144.78;100.00;59851.00;5015828;28;20209;-70
2021/01/24 09:25:57;;;;;;;2.67;2.13;;;;;;;-144.78;100.00;59851.00;5016162;28;20562;-72
2021/01/24 09:28:24;;;;;;;1.65;1.40;;;;;;;-144.78;100.00;59851.00;5016435;28;20245;-71
2021/01/24 09:30:53;;;;;;;4.97;2.38;;;;;;;-144.78;100.00;59851.00;5015848;28;20265;-72
2021/01/24 09:33:19;;;;;;;2.05;1.33;;;;;;;-144.78;100.00;59851.00;5016341;28;20198;-72
2021/01/24 09:35:46;;;;;;;2.63;1.75;;;;;;;-144.78;100.00;59851.00;5015997;28;20612;-71
2021/01/24 09:38:12;;;;;;;2.28;1.85;;;;;;;-144.78;100.00;59851.00;5016035;28;20569;-71
2021/01/24 09:40:38;;;;;;;5.05;2.65;;;;;;;-144.78;100.00;59851.00;5015828;28;20281;-72
2021/01/24 09:43:04;;;;;;;2.22;1.65;;;;;;;-144.78;100.00;59851.00;5016143;28;21026;-72
2021/01/24 09:45:31;;;;;;;1.83;1.65;;;;;;;-144.78;100.00;59851.00;5016140;28;20245;-72
2021/01/24 09:47:58;;;;;;;9.50;1.95;;;;;;;-144.78;100.00;59851.00;5015891;28;20222;-70
2021/01/24 09:50:24;;;;;;;1.98;1.70;;;;;;;-144.78;100.00;59851.00;5015882;28;20298;-70
2021/01/24 09:52:50;;;;;;;1.90;1.70;;;;;;;-144.78;100.00;59851.00;5015462;28;20293;-71
2021/01/24 09:55:16;;;;;;;2.90;2.25;;;;;;;-144.78;100.00;59851.00;5015677;28;20649;-72
2021/01/24 09:57:43;;;;;;;2.85;2.35;;;;;;;-144.78;100.00;59851.00;5015901;28;20247;-71
2021/01/24 10:00:10;;;;;;;1.83;1.60;;;;;;;-144.78;100.00;59851.00;5015187;28;20298;-70
2021/01/24 10:02:36;;;;;;;3.20;2.58;;;;;;;-144.78;100.00;59851.00;5015418;28;20187;-71
2021/01/24 10:05:04;;;;;;;1.67;1.58;;;;;;;-144.78;100.00;59851.00;5015390;28;20260;-72
2021/01/24 10:07:30;;;;;;;3.20;1.52;;;;;;;-144.78;100.00;59851.00;5015539;28;20231;-73
2021/01/24 10:09:56;;;;;;;2.38;1.83;;;;;;;-144.78;100.00;59851.00;5015595;28;20221;-73
2021/01/24 10:12:23;;;;;;;6.35;2.00;;;;;;;-144.78;100.00;59851.00;5015473;28;20244;-73
2021/01/24 10:14:49;;;;;;;2.60;2.40;;;;;;;-144.78;100.00;59851.00;5015572;28;20250;-72
2021/01/24 10:17:15;;;;;;;1.08;0.90;;;;;;;-144.78;100.00;59851.00;5015201;28;20207;-72
2021/01/24 10:19:41;;;;;;;1.35;1.10;;;;;;;-144.78;100.00;59851.00;5015208;28;20238;-73
2021/01/24 10:22:08;;;;;;;1.95;1.85;;;;;;;-144.78;100.00;59851.00;5015335;28;20630;-74
2021/01/24 10:24:34;;;;;;;2.22;1.98;;;;;;;-144.78;100.00;59851.00;5015504;28;20213;-73
2021/01/24 10:27:00;;;;;;;6.07;2.10;;;;;;;-144.78;100.00;59851.00;5015734;28;20246;-73
2021/01/24 10:29:27;;;;;;;2.80;2.10;;;;;;;-144.78;100.00;59851.00;5014173;28;20367;-74
2021/01/24 10:31:54;;;;;;;1.33;1.23;;;;;;;-144.78;100.00;59851.00;5014991;28;20661;-74
2021/01/24 10:34:20;;;;;;;2.65;1.88;;;;;;;-144.78;100.00;59851.00;5015296;28;20277;-72
2021/01/24 10:36:46;;;;;;;1.73;1.40;;;;;;;-144.78;100.00;59851.00;5014885;28;20676;-73
2021/01/24 10:39:13;;;;;;;1.90;1.70;;;;;;;-144.78;100.00;59851.00;5014703;28;20277;-74
2021/01/24 10:41:40;;;;;;;1.00;0.90;;;;;;;-144.78;100.00;59851.00;5015095;28;20221;-73
2021/01/24 10:44:06;;;;;;;2.15;1.50;;;;;;;-144.78;100.00;59851.00;5014933;28;20253;-75
2021/01/24 10:46:32;;;;;;;0.80;0.70;;;;;;;-144.78;100.00;59851.00;5014656;28;20293;-72
2021/01/24 10:48:59;;;;;;;3.28;2.40;;;;;;;-144.78;100.00;59851.00;5014582;28;20661;-72
2021/01/24 10:51:25;;;;;;;2.20;1.80;;;;;;;-144.78;100.00;59851.00;5013896;28;20226;-73
2021/01/24 10:53:52;;;;;;;1.52;1.42;;;;;;;-144.78;100.00;59851.00;5014124;28;20538;-72
2021/01/24 10:56:19;;;;;;;2.03;1.88;;;;;;;-144.78;100.00;59851.00;5014294;28;20206;-72
2021/01/24 10:58:45;;;;;;;1.70;1.60;;;;;;;-144.78;100.00;59851.00;5013915;28;20315;-73
2021/01/24 11:01:11;;;;;;;1.60;1.40;;;;;;;-144.78;100.00;59851.00;5013995;28;20293;-74
2021/01/24 11:03:38;;;;;;;1.88;1.20;;;;;;;-144.78;100.00;59851.00;5013681;28;20195;-73
2021/01/24 11:06:04;;;;;;;3.55;1.73;;;;;;;-144.78;100.00;59851.00;5014039;28;20245;-74
2021/01/24 11:08:32;;;;;;;2.00;1.73;;;;;;;-144.78;100.00;59851.00;5013928;28;20606;-73
2021/01/24 11:10:58;;;;;;;2.00;1.77;;;;;;;-144.78;100.00;59851.00;5014000;28;20680;-73
2021/01/24 11:13:25;;;;;;;1.70;1.17;;;;;;;-144.78;100.00;59851.00;5013881;28;20302;-73